Time;durP1;ratioP1;P1;durP2;ratioP2;P2;SDS_P1;SDS_P2;PMS_P1;PMS_P2;Temp;Humidity;BMP_temperature;BMP_pressure;BME280_temperature;BME280_humidity;BME280_pressure;Samples;Min_cycle;Max_cycle;Signal;HPM_P1;HPM_P2
2021/12/21 00:00:27;;;;;;;14.57;8.60;;;;;;;;;;6208391;23;20354;-84
2021/12/21 00:02:54;;;;;;;11.70;7.30;;;;;;;;;;6208752;23;20016;-84
2021/12/21 00:05:25;;;;;;;10.90;6.32;;;;;;;;;;6208175;23;20370;-84
2021/12/21 00:07:52;;;;;;;10.93;6.78;;;;;;;;;;6208444;23;20405;-84
2021/12/21 00:10:19;;;;;;;11.02;7.35;;;;;;;;;;6208323;23;20098;-84
2021/12/21 00:13:04;;;;;;;12.88;7.40;;;;;;;;;;6209920;23;20012;-84
2021/12/21 00:18:26;;;;;;;11.53;7.43;;;;;;;;;;6210310;23;19911;-84
2021/12/21 00:26:12;;;;;;;13.85;8.48;;;;;;;;;;6210159;23;20071;-84
2021/12/21 00:28:48;;;;;;;15.10;9.93;;;;;;;;;;6209727;23;20480;-84
2021/12/21 00:31:14;;;;;;;17.45;8.95;;;;;;;;;;6210404;23;20044;-84
2021/12/21 00:33:44;;;;;;;15.55;8.88;;;;;;;;;;6210272;23;20009;-83
2021/12/21 00:36:11;;;;;;;13.02;9.00;;;;;;;;;;6209785;23;20450;-83
2021/12/21 00:38:37;;;;;;;15.65;10.38;;;;;;;;;;6184872;23;20162;-84
2021/12/21 00:41:04;;;;;;;19.42;11.52;;;;;;;;;;6210034;23;20013;-83
2021/12/21 00:43:30;;;;;;;19.75;12.98;;;;;;;;;;6209937;23;20016;-83
2021/12/21 00:45:56;;;;;;;17.90;12.38;;;;;;;;;;6209975;23;20017;-84
2021/12/21 00:48:28;;;;;;;19.30;12.95;;;;;;;;;;6210119;23;20023;-84
2021/12/21 00:50:54;;;;;;;20.67;13.75;;;;;;;;;;6210192;23;20012;-84
2021/12/21 00:53:20;;;;;;;20.50;13.05;;;;;;;;;;6185048;23;20453;-83
2021/12/21 00:55:47;;;;;;;19.05;13.15;;;;;;;;;;6209601;23;20012;-83
2021/12/21 00:58:13;;;;;;;17.73;13.75;;;;;;;;;;6207891;23;20484;-83
2021/12/21 01:00:39;;;;;;;19.08;15.02;;;;;;;;;;6184669;23;20123;-83
2021/12/21 01:03:10;;;;;;;20.02;13.63;;;;;;;;;;6209691;23;20071;-83
2021/12/21 01:08:26;;;;;;;17.42;12.73;;;;;;;;;;6209949;23;20021;-83
2021/12/21 01:21:38;;;;;;;17.50;13.90;;;;;;;;;;6123594;23;20021;-83
2021/12/21 01:24:35;;;;;;;18.02;13.43;;;;;;;;;;6166231;23;20013;-83
2021/12/21 01:32:15;;;;;;;20.73;15.77;;;;;;;;;;6209507;23;20454;-83
2021/12/21 01:35:46;;;;;;;21.85;16.35;;;;;;;;;;6209553;23;20016;-83
2021/12/21 01:37:58;;;;;;;25.10;16.55;;;;;;;;;;6189262;23;20082;-83
2021/12/21 01:40:54;;;;;;;24.58;16.17;;;;;;;;;;6209475;23;20017;-83
2021/12/21 01:51:25;;;;;;;23.10;14.55;;;;;;;;;;6209331;23;19962;-82
2021/12/21 01:53:52;;;;;;;21.02;14.70;;;;;;;;;;6184133;23;20012;-83
2021/12/21 01:56:18;;;;;;;21.35;15.43;;;;;;;;;;6184505;23;20095;-83
2021/12/21 01:58:45;;;;;;;18.67;13.50;;;;;;;;;;6209195;23;20036;-83
2021/12/21 02:01:13;;;;;;;18.48;12.80;;;;;;;;;;6209243;23;20104;-83
2021/12/21 02:03:39;;;;;;;20.05;13.80;;;;;;;;;;6184119;23;20040;-82
2021/12/21 02:06:05;;;;;;;20.52;14.30;;;;;;;;;;6209061;23;20012;-83
2021/12/21 02:08:32;;;;;;;19.00;14.13;;;;;;;;;;6209304;23;20466;-83
2021/12/21 02:11:04;;;;;;;22.00;14.90;;;;;;;;;;6209083;23;20493;-83
2021/12/21 02:13:33;;;;;;;21.35;14.88;;;;;;;;;;6209233;23;20023;-83
2021/12/21 02:16:00;;;;;;;19.15;13.80;;;;;;;;;;6209089;23;20019;-82
2021/12/21 02:18:38;;;;;;;18.95;14.23;;;;;;;;;;6208905;23;20012;-83
2021/12/21 02:21:21;;;;;;;22.13;14.90;;;;;;;;;;6209276;23;20024;-83
2021/12/21 02:23:50;;;;;;;17.50;12.25;;;;;;;;;;6208970;23;20009;-83
2021/12/21 02:26:35;;;;;;;17.13;11.73;;;;;;;;;;6208950;23;20008;-83
2021/12/21 02:31:42;;;;;;;19.25;12.98;;;;;;;;;;6209069;23;20100;-82
2021/12/21 02:34:08;;;;;;;21.63;14.60;;;;;;;;;;6207999;23;20008;-82
2021/12/21 02:36:35;;;;;;;22.27;14.60;;;;;;;;;;6208424;23;20671;-82
2021/12/21 02:39:01;;;;;;;19.33;14.32;;;;;;;;;;6208762;23;20409;-82
2021/12/21 02:41:28;;;;;;;21.65;14.40;;;;;;;;;;6208751;23;20481;-82
2021/12/21 02:43:56;;;;;;;19.38;13.90;;;;;;;;;;6208590;23;20020;-82
2021/12/21 02:46:23;;;;;;;17.08;13.43;;;;;;;;;;6208742;23;20013;-82
2021/12/21 02:48:49;;;;;;;19.40;13.65;;;;;;;;;;6209265;23;20012;-82
2021/12/21 02:51:15;;;;;;;19.48;13.40;;;;;;;;;;6209098;23;20044;-82
2021/12/21 02:53:44;;;;;;;18.60;12.45;;;;;;;;;;6208605;23;20012;-82
2021/12/21 02:56:10;;;;;;;20.27;14.60;;;;;;;;;;6208690;23;20457;-82
2021/12/21 02:58:36;;;;;;;20.10;14.07;;;;;;;;;;6206418;23;20358;-82
2021/12/21 03:01:03;;;;;;;20.63;14.32;;;;;;;;;;6209000;23;20023;-82
2021/12/21 03:03:29;;;;;;;21.92;14.98;;;;;;;;;;6207410;23;20047;-82
2021/12/21 03:05:57;;;;;;;19.58;15.05;;;;;;;;;;6208618;23;20031;-82
2021/12/21 03:08:35;;;;;;;22.13;15.70;;;;;;;;;;6208495;23;20083;-82
2021/12/21 03:11:12;;;;;;;22.58;15.00;;;;;;;;;;6208507;23;20324;-82
2021/12/21 03:16:19;;;;;;;18.38;13.70;;;;;;;;;;6208367;23;20012;-82
2021/12/21 03:18:46;;;;;;;22.20;14.55;;;;;;;;;;6208664;23;20020;-82
2021/12/21 03:21:13;;;;;;;21.90;15.40;;;;;;;;;;6208241;23;20016;-82
2021/12/21 03:23:40;;;;;;;19.52;14.63;;;;;;;;;;6208662;23;20012;-82
2021/12/21 03:26:06;;;;;;;21.08;13.27;;;;;;;;;;6208355;23;20016;-82
2021/12/21 03:28:33;;;;;;;18.08;12.77;;;;;;;;;;6183341;23;20023;-82
2021/12/21 03:31:00;;;;;;;19.25;13.25;;;;;;;;;;6208498;23;20024;-82
2021/12/21 03:33:26;;;;;;;23.02;15.32;;;;;;;;;;6208665;23;20055;-82
2021/12/21 03:35:52;;;;;;;22.75;16.33;;;;;;;;;;6208232;23;20520;-82
2021/12/21 03:38:18;;;;;;;22.63;15.18;;;;;;;;;;6183270;23;20092;-82
2021/12/21 03:40:45;;;;;;;22.85;15.25;;;;;;;;;;6208480;23;20016;-82
2021/12/21 03:43:11;;;;;;;22.95;14.50;;;;;;;;;;6208266;23;20430;-82
2021/12/21 03:45:49;;;;;;;19.60;13.75;;;;;;;;;;6207787;23;20324;-82
2021/12/21 03:48:16;;;;;;;19.33;14.23;;;;;;;;;;6208198;23;20027;-82
2021/12/21 03:50:42;;;;;;;18.38;12.68;;;;;;;;;;6208139;23;20013;-82
2021/12/21 03:53:08;;;;;;;21.27;14.10;;;;;;;;;;6208715;23;20611;-82
2021/12/21 03:55:34;;;;;;;18.33;13.48;;;;;;;;;;6208378;23;20024;-82
2021/12/21 03:58:01;;;;;;;16.77;12.50;;;;;;;;;;6208340;23;20048;-82
2021/12/21 04:00:28;;;;;;;18.17;12.38;;;;;;;;;;6183503;23;20016;-82
2021/12/21 04:02:54;;;;;;;16.83;12.32;;;;;;;;;;6208152;23;20013;-82
2021/12/21 04:05:20;;;;;;;19.45;13.52;;;;;;;;;;6208096;23;20044;-82
2021/12/21 04:07:46;;;;;;;17.80;12.25;;;;;;;;;;6208012;23;20048;-82
2021/12/21 04:10:13;;;;;;;14.65;10.60;;;;;;;;;;6208029;23;20043;-82
2021/12/21 04:12:39;;;;;;;16.77;10.02;;;;;;;;;;6208133;23;20017;-82
2021/12/21 04:15:07;;;;;;;16.67;10.85;;;;;;;;;;6208045;23;20025;-83
2021/12/21 04:17:33;;;;;;;18.15;10.52;;;;;;;;;;6207791;23;20354;-82
2021/12/21 04:19:59;;;;;;;14.63;9.75;;;;;;;;;;6207958;23;20013;-83
2021/12/21 04:22:26;;;;;;;15.82;10.43;;;;;;;;;;6208310;23;20020;-83
2021/12/21 04:24:52;;;;;;;14.82;10.23;;;;;;;;;;6208499;23;20012;-83
2021/12/21 04:27:18;;;;;;;16.52;10.20;;;;;;;;;;6208216;23;20023;-83
2021/12/21 04:29:45;;;;;;;17.52;9.75;;;;;;;;;;6207972;23;20105;-83
2021/12/21 04:32:11;;;;;;;11.43;8.45;;;;;;;;;;6208029;23;20444;-83
2021/12/21 04:34:38;;;;;;;14.13;8.93;;;;;;;;;;6208137;23;20079;-83
2021/12/21 04:37:06;;;;;;;13.80;8.27;;;;;;;;;;6206823;23;20346;-83
2021/12/21 04:40:01;;;;;;;14.05;8.40;;;;;;;;;;6206380;23;20016;-83
2021/12/21 04:42:19;;;;;;;14.07;9.18;;;;;;;;;;6206575;23;20028;-83
2021/12/21 04:44:45;;;;;;;13.18;8.45;;;;;;;;;;6207722;23;20017;-83
2021/12/21 04:47:13;;;;;;;15.73;9.13;;;;;;;;;;6207779;23;20048;-83
2021/12/21 04:49:39;;;;;;;14.60;9.90;;;;;;;;;;6207959;23;20024;-83
2021/12/21 04:52:05;;;;;;;17.88;9.65;;;;;;;;;;6207898;23;20012;-83
2021/12/21 04:54:31;;;;;;;15.30;10.35;;;;;;;;;;6182862;23;20045;-83
2021/12/21 04:56:58;;;;;;;16.02;9.73;;;;;;;;;;6208147;23;20051;-83
2021/12/21 04:59:24;;;;;;;13.00;8.60;;;;;;;;;;6209833;23;20091;-83
2021/12/21 05:01:52;;;;;;;16.40;9.80;;;;;;;;;;6184584;23;20016;-83
2021/12/21 05:04:18;;;;;;;15.23;8.57;;;;;;;;;;6209953;23;20039;-83
2021/12/21 05:06:44;;;;;;;15.38;8.80;;;;;;;;;;6209986;23;20491;-83
2021/12/21 05:09:14;;;;;;;14.05;9.05;;;;;;;;;;6209540;23;20013;-83
2021/12/21 05:11:43;;;;;;;12.98;8.75;;;;;;;;;;6209694;23;20382;-84
2021/12/21 05:14:09;;;;;;;13.77;8.75;;;;;;;;;;6209504;23;20009;-83
2021/12/21 05:16:36;;;;;;;14.10;8.60;;;;;;;;;;6209534;23;20016;-84
2021/12/21 05:19:03;;;;;;;12.85;7.90;;;;;;;;;;6210315;23;20012;-83
2021/12/21 05:21:29;;;;;;;12.43;7.70;;;;;;;;;;6209903;23;20020;-83
2021/12/21 05:23:55;;;;;;;16.15;8.85;;;;;;;;;;6209848;23;20021;-83
2021/12/21 05:26:21;;;;;;;12.70;7.97;;;;;;;;;;6209574;23;20023;-83
2021/12/21 05:28:48;;;;;;;13.75;8.27;;;;;;;;;;6209480;23;20452;-83
2021/12/21 05:31:14;;;;;;;12.25;7.85;;;;;;;;;;6210382;23;20016;-83
2021/12/21 05:33:40;;;;;;;11.45;7.60;;;;;;;;;;6184352;23;20031;-83
2021/12/21 05:36:06;;;;;;;12.68;7.82;;;;;;;;;;6209153;23;20062;-83
2021/12/21 05:38:34;;;;;;;14.32;9.18;;;;;;;;;;6209386;23;20417;-83
2021/12/21 05:41:04;;;;;;;13.10;7.78;;;;;;;;;;6209832;23;20012;-83
2021/12/21 05:43:30;;;;;;;12.20;7.90;;;;;;;;;;6209327;23;20017;-84
2021/12/21 05:45:56;;;;;;;10.90;7.60;;;;;;;;;;6184345;23;20016;-83
2021/12/21 05:48:22;;;;;;;12.40;7.20;;;;;;;;;;6209288;23;20013;-83
2021/12/21 05:50:49;;;;;;;10.75;7.18;;;;;;;;;;6209641;23;20020;-83
2021/12/21 05:53:15;;;;;;;10.52;7.18;;;;;;;;;;6209134;23;20024;-83
2021/12/21 05:55:41;;;;;;;12.18;7.00;;;;;;;;;;6209235;23;20078;-83
2021/12/21 05:58:08;;;;;;;10.43;6.80;;;;;;;;;;6209126;23;20343;-83
2021/12/21 06:00:35;;;;;;;13.07;7.30;;;;;;;;;;6209163;23;20074;-83
2021/12/21 06:03:02;;;;;;;11.40;6.90;;;;;;;;;;6209552;23;20016;-83
2021/12/21 06:05:28;;;;;;;13.48;7.40;;;;;;;;;;6209054;23;20095;-83
2021/12/21 06:07:55;;;;;;;10.85;7.30;;;;;;;;;;6208982;23;20039;-83
2021/12/21 06:10:28;;;;;;;10.70;6.72;;;;;;;;;;6208930;23;20084;-83
2021/12/21 06:15:35;;;;;;;11.65;7.47;;;;;;;;;;6209028;23;20458;-83
2021/12/21 06:26:15;;;;;;;11.75;6.93;;;;;;;;;;6208951;23;20032;-82
2021/12/21 06:28:42;;;;;;;10.45;7.20;;;;;;;;;;6208431;23;20008;-83
2021/12/21 06:31:08;;;;;;;12.75;7.45;;;;;;;;;;6183820;23;20036;-83
2021/12/21 06:33:35;;;;;;;10.82;6.55;;;;;;;;;;6208817;23;20078;-82
2021/12/21 06:36:01;;;;;;;10.55;6.85;;;;;;;;;;6208764;23;20040;-83
2021/12/21 06:38:27;;;;;;;10.63;6.00;;;;;;;;;;6209007;23;20024;-83
2021/12/21 06:40:54;;;;;;;13.27;7.70;;;;;;;;;;6208760;23;20023;-82
2021/12/21 06:43:20;;;;;;;12.52;7.43;;;;;;;;;;6208883;23;20023;-82
2021/12/21 06:45:56;;;;;;;12.07;7.00;;;;;;;;;;6208674;23;20024;-82
2021/12/21 06:51:28;;;;;;;11.18;6.53;;;;;;;;;;6208662;23;20047;-82
2021/12/21 06:53:55;;;;;;;13.02;6.65;;;;;;;;;;6208788;23;20020;-82
2021/12/21 06:56:22;;;;;;;12.13;7.65;;;;;;;;;;6208557;23;20015;-82
2021/12/21 06:58:48;;;;;;;10.05;6.57;;;;;;;;;;6208581;23;20016;-82
2021/12/21 07:01:15;;;;;;;9.90;6.43;;;;;;;;;;6208557;23;20355;-82
2021/12/21 07:03:42;;;;;;;10.88;6.93;;;;;;;;;;6208655;23;20027;-82
2021/12/21 07:06:08;;;;;;;14.18;7.93;;;;;;;;;;6208806;23;20604;-82
2021/12/21 07:11:43;;;;;;;14.13;8.35;;;;;;;;;;6093070;23;20397;-82
2021/12/21 07:19:40;;;;;;;9.98;7.20;;;;;;;;;;6207663;23;20454;-84
2021/12/21 07:22:07;;;;;;;12.13;7.40;;;;;;;;;;6208292;23;20354;-82
2021/12/21 07:24:33;;;;;;;11.93;7.38;;;;;;;;;;6207969;23;20021;-81
2021/12/21 07:26:59;;;;;;;10.45;7.03;;;;;;;;;;6207963;23;20504;-83
2021/12/21 07:29:26;;;;;;;13.60;7.55;;;;;;;;;;6206878;23;20012;-82
2021/12/21 07:31:53;;;;;;;11.70;7.40;;;;;;;;;;6208060;23;20024;-81
2021/12/21 07:34:19;;;;;;;12.40;7.22;;;;;;;;;;6182873;23;20023;-81
2021/12/21 07:37:09;;;;;;;11.30;7.50;;;;;;;;;;6181956;23;20329;-82
2021/12/21 07:39:35;;;;;;;13.98;8.27;;;;;;;;;;6207671;23;20411;-82
2021/12/21 07:42:01;;;;;;;11.70;8.27;;;;;;;;;;6207994;23;20020;-82
2021/12/21 07:44:28;;;;;;;11.85;8.55;;;;;;;;;;6208098;23;20016;-82
2021/12/21 07:46:54;;;;;;;12.55;7.82;;;;;;;;;;6208107;23;20401;-82
2021/12/21 07:49:20;;;;;;;13.13;8.82;;;;;;;;;;6207689;23;20016;-82
2021/12/21 07:51:48;;;;;;;12.85;7.68;;;;;;;;;;6207693;23;20016;-81
2021/12/21 07:54:14;;;;;;;12.40;8.38;;;;;;;;;;6208090;23;20079;-83
2021/12/21 07:56:40;;;;;;;12.57;8.20;;;;;;;;;;6207799;23;20025;-83
2021/12/21 07:59:07;;;;;;;13.35;8.30;;;;;;;;;;6207874;23;20349;-82
2021/12/21 08:01:33;;;;;;;12.18;8.48;;;;;;;;;;6208185;23;20017;-81
2021/12/21 08:04:00;;;;;;;12.38;8.85;;;;;;;;;;6207923;23;20012;-82
2021/12/21 08:06:29;;;;;;;14.98;8.65;;;;;;;;;;6208154;23;20016;-82
2021/12/21 08:08:56;;;;;;;14.23;9.10;;;;;;;;;;6182566;23;20481;-82
2021/12/21 08:14:01;;;;;;;13.55;9.02;;;;;;;;;;6208317;23;20043;-83
2021/12/21 08:16:27;;;;;;;13.10;8.75;;;;;;;;;;6208460;23;20019;-82
2021/12/21 08:18:53;;;;;;;14.07;9.02;;;;;;;;;;6207672;23;20017;-82
2021/12/21 08:21:22;;;;;;;14.27;8.07;;;;;;;;;;6207825;23;20013;-82
2021/12/21 08:23:48;;;;;;;13.25;9.00;;;;;;;;;;6208015;23;20013;-82
2021/12/21 08:26:21;;;;;;;13.50;9.23;;;;;;;;;;6207939;23;20016;-82
2021/12/21 08:28:47;;;;;;;15.45;8.95;;;;;;;;;;6207881;23;20009;-82
2021/12/21 08:31:13;;;;;;;15.05;8.95;;;;;;;;;;6207904;23;20013;-82
2021/12/21 08:33:41;;;;;;;12.55;9.05;;;;;;;;;;6209996;23;20312;-82
2021/12/21 08:36:08;;;;;;;13.40;8.90;;;;;;;;;;6209705;23;20013;-82
2021/12/21 08:38:36;;;;;;;13.75;8.65;;;;;;;;;;6210073;23;20025;-83
2021/12/21 08:41:03;;;;;;;14.80;9.07;;;;;;;;;;6209917;23;20070;-82
2021/12/21 08:43:31;;;;;;;12.57;8.68;;;;;;;;;;6209855;23;20063;-81
2021/12/21 08:45:58;;;;;;;13.95;9.10;;;;;;;;;;6209731;23;20354;-81
2021/12/21 08:48:25;;;;;;;13.55;8.77;;;;;;;;;;6210205;23;20013;-81
2021/12/21 08:50:55;;;;;;;13.45;8.57;;;;;;;;;;6184297;23;20122;-81
2021/12/21 08:53:22;;;;;;;13.32;8.98;;;;;;;;;;6187794;23;20342;-83
2021/12/21 08:55:48;;;;;;;13.40;9.40;;;;;;;;;;6186363;23;20110;-82
2021/12/21 08:58:15;;;;;;;12.90;9.02;;;;;;;;;;6208674;23;20059;-82
2021/12/21 09:00:42;;;;;;;15.63;9.18;;;;;;;;;;6207782;23;20016;-81
2021/12/21 09:03:08;;;;;;;15.07;9.57;;;;;;;;;;6209013;23;20458;-81
2021/12/21 09:05:35;;;;;;;15.52;9.57;;;;;;;;;;6208922;23;20099;-81
2021/12/21 09:08:02;;;;;;;16.38;10.43;;;;;;;;;;6208877;23;20087;-81
2021/12/21 09:10:29;;;;;;;15.77;10.13;;;;;;;;;;6208954;23;20079;-80
2021/12/21 09:12:56;;;;;;;16.52;10.40;;;;;;;;;;6208997;23;20059;-81
2021/12/21 09:15:23;;;;;;;15.13;10.07;;;;;;;;;;6209175;23;20016;-80
2021/12/21 09:17:49;;;;;;;17.30;10.10;;;;;;;;;;6209821;23;20103;-82
2021/12/21 09:20:17;;;;;;;16.70;10.38;;;;;;;;;;6184006;23;20020;-82
2021/12/21 09:22:43;;;;;;;16.90;11.25;;;;;;;;;;6209132;23;20027;-82
2021/12/21 09:25:10;;;;;;;18.77;11.93;;;;;;;;;;6209136;23;20118;-82
2021/12/21 09:27:36;;;;;;;16.73;12.27;;;;;;;;;;6209376;23;20020;-82
2021/12/21 09:30:03;;;;;;;20.25;12.15;;;;;;;;;;6184421;23;20047;-81
2021/12/21 09:32:30;;;;;;;22.85;13.60;;;;;;;;;;6209297;23;20635;-84
2021/12/21 09:34:56;;;;;;;20.17;13.23;;;;;;;;;;6209293;23;20016;-82
2021/12/21 09:37:22;;;;;;;20.92;13.13;;;;;;;;;;6208889;23;20265;-81
2021/12/21 09:39:50;;;;;;;23.67;13.13;;;;;;;;;;6209045;23;20358;-82
2021/12/21 09:42:18;;;;;;;19.65;12.77;;;;;;;;;;6183805;23;20020;-82
2021/12/21 09:44:44;;;;;;;20.25;13.02;;;;;;;;;;6208392;23;20260;-82
2021/12/21 09:47:11;;;;;;;18.05;11.90;;;;;;;;;;6209240;23;20439;-82
2021/12/21 09:49:39;;;;;;;21.50;14.90;;;;;;;;;;6208769;23;20521;-82
2021/12/21 09:52:06;;;;;;;23.38;15.38;;;;;;;;;;6209448;23;20111;-82
2021/12/21 09:54:33;;;;;;;21.75;15.60;;;;;;;;;;6207500;23;20470;-82
2021/12/21 09:57:00;;;;;;;26.58;15.93;;;;;;;;;;6181870;23;20091;-83
2021/12/21 09:59:26;;;;;;;23.20;16.15;;;;;;;;;;6208562;23;20020;-83
2021/12/21 10:01:55;;;;;;;24.20;16.15;;;;;;;;;;6206646;23;20472;-82
2021/12/21 10:04:22;;;;;;;25.80;16.40;;;;;;;;;;6205229;23;20026;-82
2021/12/21 10:06:49;;;;;;;25.67;15.93;;;;;;;;;;6208203;23;20016;-82
2021/12/21 10:09:18;;;;;;;22.33;15.10;;;;;;;;;;6208507;23;20016;-83
2021/12/21 10:11:47;;;;;;;28.25;16.50;;;;;;;;;;6208867;23;20017;-82
2021/12/21 10:14:14;;;;;;;26.92;18.30;;;;;;;;;;6209002;23;20078;-82
2021/12/21 10:16:40;;;;;;;25.50;16.40;;;;;;;;;;6209331;23;20012;-83
2021/12/21 10:19:06;;;;;;;26.77;17.25;;;;;;;;;;6209385;23;20353;-82
2021/12/21 10:21:33;;;;;;;24.65;15.82;;;;;;;;;;6208976;23;20091;-84
2021/12/21 10:24:02;;;;;;;25.70;16.17;;;;;;;;;;6209471;23;20020;-83
2021/12/21 10:26:32;;;;;;;21.73;14.55;;;;;;;;;;6183909;23;20021;-83
2021/12/21 10:29:00;;;;;;;23.83;15.35;;;;;;;;;;6208800;23;20083;-83
2021/12/21 10:31:38;;;;;;;22.15;14.85;;;;;;;;;;6208723;23;20047;-83
2021/12/21 10:34:11;;;;;;;26.90;14.68;;;;;;;;;;6183672;23;20009;-82
2021/12/21 10:36:49;;;;;;;30.00;16.13;;;;;;;;;;6183450;23;20016;-82
2021/12/21 10:39:22;;;;;;;29.58;16.67;;;;;;;;;;6209488;23;20035;-82
2021/12/21 10:41:51;;;;;;;27.70;15.38;;;;;;;;;;6209120;23;20350;-82
2021/12/21 10:44:18;;;;;;;24.08;15.48;;;;;;;;;;6208704;23;20024;-82
2021/12/21 10:46:57;;;;;;;24.42;17.27;;;;;;;;;;6208668;23;20048;-82
2021/12/21 10:49:24;;;;;;;23.83;16.08;;;;;;;;;;6183633;23;20012;-82
2021/12/21 10:51:58;;;;;;;27.83;16.73;;;;;;;;;;6208929;23;20017;-83
2021/12/21 10:54:28;;;;;;;29.95;18.70;;;;;;;;;;6208997;23;20009;-83
2021/12/21 10:56:59;;;;;;;26.63;17.77;;;;;;;;;;6208830;23;20082;-83
2021/12/21 10:59:29;;;;;;;33.03;19.15;;;;;;;;;;6208756;23;20025;-84
2021/12/21 11:02:04;;;;;;;30.20;20.35;;;;;;;;;;6209045;23;20095;-84
2021/12/21 11:04:39;;;;;;;32.17;19.85;;;;;;;;;;6208605;23;20498;-84
2021/12/21 11:07:42;;;;;;;35.53;21.50;;;;;;;;;;6208613;23;20016;-84
2021/12/21 11:10:30;;;;;;;31.40;20.38;;;;;;;;;;6162425;23;20019;-84
2021/12/21 11:13:05;;;;;;;30.48;21.65;;;;;;;;;;6208707;23;20012;-84
2021/12/21 11:15:35;;;;;;;31.23;23.08;;;;;;;;;;6208478;23;20013;-84
2021/12/21 11:18:06;;;;;;;33.28;22.38;;;;;;;;;;6208448;23;20533;-84
2021/12/21 11:20:35;;;;;;;35.95;22.73;;;;;;;;;;6183729;23;20508;-84
2021/12/21 11:23:02;;;;;;;31.38;22.15;;;;;;;;;;6208738;23;20520;-83
2021/12/21 11:25:29;;;;;;;33.35;21.98;;;;;;;;;;6183248;23;20059;-83
2021/12/21 11:27:55;;;;;;;28.92;19.77;;;;;;;;;;6183326;23;20646;-84
2021/12/21 11:30:24;;;;;;;28.05;19.23;;;;;;;;;;6208332;23;20063;-84
2021/12/21 11:32:52;;;;;;;30.67;18.73;;;;;;;;;;6208239;23;20365;-84
2021/12/21 11:37:46;;;;;;;23.67;16.98;;;;;;;;;;6207956;23;20409;-83
2021/12/21 11:40:15;;;;;;;24.98;18.42;;;;;;;;;;6208374;23;20055;-83
2021/12/21 11:42:54;;;;;;;27.27;17.73;;;;;;;;;;6208542;23;20042;-83
2021/12/21 11:45:29;;;;;;;24.80;18.80;;;;;;;;;;6208254;23;20017;-83
2021/12/21 11:48:11;;;;;;;27.83;18.40;;;;;;;;;;6208241;23;20103;-83
2021/12/21 11:50:38;;;;;;;28.33;18.88;;;;;;;;;;6208091;23;20123;-83
2021/12/21 11:53:06;;;;;;;26.65;18.10;;;;;;;;;;6208147;23;20020;-83
2021/12/21 11:55:33;;;;;;;29.33;18.73;;;;;;;;;;6208326;23;20044;-83
2021/12/21 11:58:00;;;;;;;28.60;18.23;;;;;;;;;;6208467;23;20012;-83
2021/12/21 12:00:32;;;;;;;24.90;16.67;;;;;;;;;;6207394;23;20016;-83
2021/12/21 12:03:28;;;;;;;23.90;16.35;;;;;;;;;;6208319;23;20063;-83
2021/12/21 12:06:00;;;;;;;24.70;17.17;;;;;;;;;;6189283;23;20020;-83
2021/12/21 12:08:28;;;;;;;25.15;16.88;;;;;;;;;;6207664;23;20115;-84
2021/12/21 12:10:56;;;;;;;29.15;17.00;;;;;;;;;;6208119;23;20591;-83
2021/12/21 12:13:25;;;;;;;22.60;17.23;;;;;;;;;;6208137;23;20067;-83
2021/12/21 12:15:56;;;;;;;25.10;16.63;;;;;;;;;;6208831;23;20009;-83
2021/12/21 12:18:24;;;;;;;23.63;15.63;;;;;;;;;;6208625;23;20016;-85
2021/12/21 12:20:50;;;;;;;24.90;16.98;;;;;;;;;;6208385;23;20016;-82
2021/12/21 12:23:19;;;;;;;23.10;15.95;;;;;;;;;;6207805;23;20088;-83
2021/12/21 12:25:56;;;;;;;23.75;15.98;;;;;;;;;;6208629;23;20439;-84
2021/12/21 12:28:33;;;;;;;27.60;16.65;;;;;;;;;;6208569;23;20263;-84
2021/12/21 12:31:00;;;;;;;23.27;15.95;;;;;;;;;;6207961;23;20036;-83
2021/12/21 12:33:37;;;;;;;21.90;15.10;;;;;;;;;;6208738;23;20469;-84
2021/12/21 12:36:04;;;;;;;24.48;17.65;;;;;;;;;;6207933;23;20087;-84
2021/12/21 12:38:30;;;;;;;24.73;17.17;;;;;;;;;;6207589;23;20048;-83
2021/12/21 12:40:58;;;;;;;23.15;16.67;;;;;;;;;;6208255;23;20055;-84
2021/12/21 12:43:24;;;;;;;27.23;16.90;;;;;;;;;;6207897;23;20458;-84
2021/12/21 12:45:52;;;;;;;25.50;16.40;;;;;;;;;;6208005;23;20142;-85
2021/12/21 12:48:32;;;;;;;23.52;16.40;;;;;;;;;;6207789;23;20020;-83
2021/12/21 12:51:04;;;;;;;23.00;15.38;;;;;;;;;;6207898;23;20028;-83
2021/12/21 12:53:47;;;;;;;24.50;16.23;;;;;;;;;;6207953;23;20012;-83
2021/12/21 12:56:15;;;;;;;25.83;14.95;;;;;;;;;;6207860;23;20450;-84
2021/12/21 12:58:49;;;;;;;20.63;14.13;;;;;;;;;;6207927;23;20013;-85
2021/12/21 13:01:21;;;;;;;18.08;11.73;;;;;;;;;;6207876;23;20020;-84
2021/12/21 13:03:47;;;;;;;17.45;11.02;;;;;;;;;;6182891;23;20355;-85
2021/12/21 13:06:18;;;;;;;16.88;10.75;;;;;;;;;;6207808;23;20017;-85
2021/12/21 13:08:45;;;;;;;18.02;10.43;;;;;;;;;;6207707;23;20016;-85
2021/12/21 13:11:12;;;;;;;15.90;10.30;;;;;;;;;;6207774;23;20098;-85
2021/12/21 13:13:43;;;;;;;14.98;9.85;;;;;;;;;;6208109;23;20047;-85
2021/12/21 13:16:18;;;;;;;15.57;10.13;;;;;;;;;;6207759;23;20023;-85
2021/12/21 13:18:44;;;;;;;15.52;9.98;;;;;;;;;;6208595;23;20228;-85
2021/12/21 13:21:32;;;;;;;14.55;9.10;;;;;;;;;;6209357;23;20048;-85
2021/12/21 13:24:10;;;;;;;14.65;8.50;;;;;;;;;;6184916;23;20012;-85
2021/12/21 13:26:36;;;;;;;14.00;9.20;;;;;;;;;;6209689;23;20071;-85
2021/12/21 13:29:04;;;;;;;14.38;9.77;;;;;;;;;;6210176;23;20264;-85
2021/12/21 13:31:30;;;;;;;14.63;8.52;;;;;;;;;;6184433;23;20095;-85
2021/12/21 13:33:58;;;;;;;16.75;9.27;;;;;;;;;;6209610;23;20012;-83
2021/12/21 13:36:34;;;;;;;15.07;9.50;;;;;;;;;;6209110;23;20023;-83
2021/12/21 13:39:01;;;;;;;14.15;10.35;;;;;;;;;;6209416;23;20020;-84
2021/12/21 13:41:27;;;;;;;17.48;9.20;;;;;;;;;;6184609;23;20354;-83
2021/12/21 13:43:56;;;;;;;16.23;10.15;;;;;;;;;;6209289;23;20095;-84
2021/12/21 13:46:22;;;;;;;15.00;9.52;;;;;;;;;;6209234;23;20016;-85
2021/12/21 13:48:53;;;;;;;17.92;9.35;;;;;;;;;;6209217;23;20087;-86
2021/12/21 13:51:20;;;;;;;16.65;9.90;;;;;;;;;;6209015;23;20071;-85
2021/12/21 13:53:47;;;;;;;13.27;9.45;;;;;;;;;;6209783;23;20050;-84
2021/12/21 13:56:15;;;;;;;16.77;10.75;;;;;;;;;;6209114;23;20417;-85
2021/12/21 13:58:42;;;;;;;11.90;9.13;;;;;;;;;;6209236;23;20027;-85
2021/12/21 14:01:16;;;;;;;20.85;10.23;;;;;;;;;;6208692;23;20024;-85
2021/12/21 14:03:46;;;;;;;15.88;10.65;;;;;;;;;;6209199;23;20433;-86
2021/12/21 14:06:15;;;;;;;17.33;10.35;;;;;;;;;;6209671;23;20331;-86
2021/12/21 14:08:45;;;;;;;16.60;10.60;;;;;;;;;;6209067;23;20012;-85
2021/12/21 14:11:12;;;;;;;14.57;9.65;;;;;;;;;;6184046;23;20024;-85
2021/12/21 14:13:42;;;;;;;16.40;11.05;;;;;;;;;;6209541;23;20082;-85
2021/12/21 14:16:09;;;;;;;17.63;11.05;;;;;;;;;;6209102;23;20013;-85
2021/12/21 14:18:41;;;;;;;14.55;10.25;;;;;;;;;;6208929;23;20067;-85
2021/12/21 14:21:09;;;;;;;15.88;10.35;;;;;;;;;;6209122;23;20035;-85
2021/12/21 14:23:36;;;;;;;17.13;11.10;;;;;;;;;;6209644;23;20071;-85
2021/12/21 14:26:12;;;;;;;17.58;11.00;;;;;;;;;;6208767;23;20016;-85
2021/12/21 14:28:48;;;;;;;17.15;11.43;;;;;;;;;;6208748;23;20020;-84
2021/12/21 14:31:16;;;;;;;18.50;10.52;;;;;;;;;;6208720;23;20052;-84
2021/12/21 14:33:48;;;;;;;16.15;10.57;;;;;;;;;;6208910;23;20012;-84
2021/12/21 14:36:15;;;;;;;17.05;11.27;;;;;;;;;;6208789;23;20021;-85
2021/12/21 14:38:52;;;;;;;16.45;10.82;;;;;;;;;;6183908;23;20690;-84
2021/12/21 14:41:22;;;;;;;19.77;10.85;;;;;;;;;;6208970;23;20017;-84
2021/12/21 14:43:59;;;;;;;19.77;10.98;;;;;;;;;;6208849;23;20023;-84
2021/12/21 14:46:26;;;;;;;15.90;10.65;;;;;;;;;;6208823;23;20012;-83
2021/12/21 14:48:59;;;;;;;19.35;11.40;;;;;;;;;;6208940;23;20012;-83
2021/12/21 14:51:25;;;;;;;17.77;11.37;;;;;;;;;;6208926;23;20021;-83
2021/12/21 14:54:03;;;;;;;17.30;11.00;;;;;;;;;;6208602;23;20540;-83
2021/12/21 14:56:31;;;;;;;18.08;10.70;;;;;;;;;;6208766;23;20012;-83
2021/12/21 14:59:02;;;;;;;18.45;11.73;;;;;;;;;;6208466;23;20017;-83
2021/12/21 15:01:36;;;;;;;20.42;10.48;;;;;;;;;;6208986;23;20224;-84
2021/12/21 15:04:12;;;;;;;19.02;11.25;;;;;;;;;;6208678;23;20017;-84
2021/12/21 15:06:38;;;;;;;18.77;10.95;;;;;;;;;;6208519;23;20044;-83
2021/12/21 15:09:05;;;;;;;20.35;12.07;;;;;;;;;;6208431;23;20099;-83
2021/12/21 15:11:31;;;;;;;19.60;10.90;;;;;;;;;;6208801;23;20017;-84
2021/12/21 15:13:57;;;;;;;20.98;11.70;;;;;;;;;;6183723;23;20019;-83
2021/12/21 15:16:24;;;;;;;18.40;11.25;;;;;;;;;;6208770;23;20044;-84
2021/12/21 15:18:50;;;;;;;16.58;11.32;;;;;;;;;;6208555;23;20040;-84
2021/12/21 15:21:16;;;;;;;17.70;11.68;;;;;;;;;;6183753;23;20017;-84
2021/12/21 15:23:42;;;;;;;17.83;10.73;;;;;;;;;;6207803;23;20043;-84
2021/12/21 15:26:09;;;;;;;21.08;12.48;;;;;;;;;;6183340;23;20039;-84
2021/12/21 15:28:35;;;;;;;17.92;11.73;;;;;;;;;;6183299;23;20423;-83
2021/12/21 15:31:01;;;;;;;18.95;11.63;;;;;;;;;;6208207;23;20021;-83
2021/12/21 15:33:27;;;;;;;19.20;11.73;;;;;;;;;;6208660;23;20106;-83
2021/12/21 15:35:53;;;;;;;16.63;11.25;;;;;;;;;;6208336;23;20127;-83
2021/12/21 15:38:19;;;;;;;17.25;10.68;;;;;;;;;;6183041;23;20016;-84